createdAt,value
2023-12-28T00:04:15.894Z,3.92
2023-12-28T00:09:19.254Z,4.20
2023-12-28T00:14:23.027Z,4.28
2023-12-28T00:19:27.749Z,3.35
2023-12-28T00:24:31.020Z,4.20
2023-12-28T00:29:35.675Z,4.00
2023-12-28T00:34:41.723Z,3.55
2023-12-28T00:39:45.705Z,3.78
2023-12-28T00:44:49.618Z,3.97
2023-12-28T00:49:54.577Z,4.10
2023-12-28T00:54:58.081Z,3.80
2023-12-28T01:00:01.511Z,4.13
2023-12-28T01:05:06.736Z,4.72
2023-12-28T01:10:10.198Z,4.00
2023-12-28T01:15:13.736Z,3.40
2023-12-28T01:20:18.489Z,3.63
2023-12-28T01:25:21.737Z,4.38
2023-12-28T01:30:25.325Z,4.43
2023-12-28T01:35:30.069Z,4.70
2023-12-28T01:40:33.409Z,4.00
2023-12-28T01:45:36.775Z,3.50
2023-12-28T01:50:42.262Z,4.53
2023-12-28T01:55:45.844Z,4.23
2023-12-28T02:00:49.916Z,3.87
2023-12-28T02:05:54.671Z,3.63
2023-12-28T02:10:58.173Z,4.27
2023-12-28T02:16:05.784Z,4.05
2023-12-28T02:21:11.697Z,5.03
2023-12-28T02:26:16.282Z,4.93
2023-12-28T02:31:27.526Z,4.87
2023-12-28T02:36:31.303Z,4.63
2023-12-28T02:41:36.478Z,4.50
2023-12-28T02:46:41.196Z,4.93
2023-12-28T02:51:44.593Z,5.10
2023-12-28T02:56:49.381Z,4.17
2023-12-28T03:01:52.615Z,4.50
2023-12-28T03:06:55.920Z,4.57
2023-12-28T03:12:00.636Z,4.77
2023-12-28T03:17:04.069Z,4.35
2023-12-28T03:22:07.335Z,4.87
2023-12-28T03:27:12.171Z,4.73
2023-12-28T03:32:16.807Z,5.00
2023-12-28T03:37:20.121Z,4.97
2023-12-28T03:42:25.205Z,4.40
2023-12-28T03:47:28.626Z,5.63
2023-12-28T03:52:32.247Z,5.43
2023-12-28T03:57:36.970Z,5.47
2023-12-28T04:02:40.265Z,5.67
2023-12-28T04:07:46.540Z,4.40
2023-12-28T04:12:51.242Z,4.93
2023-12-28T04:17:54.733Z,5.30
2023-12-28T04:22:58.021Z,5.17
2023-12-28T04:28:03.294Z,4.90
2023-12-28T04:33:07.275Z,5.57
2023-12-28T04:38:11.380Z,5.40
2023-12-28T04:43:16.141Z,4.60
2023-12-28T04:48:22.153Z,6.33
2023-12-28T04:53:25.604Z,5.97
2023-12-28T04:58:31.278Z,5.43
2023-12-28T05:03:35.152Z,5.07
2023-12-28T05:08:38.542Z,4.97
2023-12-28T05:13:43.141Z,5.33
2023-12-28T05:18:46.644Z,5.17
2023-12-28T05:23:50.024Z,5.47
2023-12-28T05:28:54.642Z,5.67
2023-12-28T05:33:59.587Z,5.17
2023-12-28T05:39:03.696Z,5.13
2023-12-28T05:44:08.636Z,5.00
2023-12-28T05:49:12.065Z,4.70
2023-12-28T05:54:15.352Z,5.93
2023-12-28T05:59:20.095Z,4.83
2023-12-28T06:04:23.493Z,6.40
2023-12-28T06:09:28.965Z,6.07
2023-12-28T06:14:33.651Z,5.33
2023-12-28T06:19:37.109Z,5.70
2023-12-28T06:24:41.607Z,5.37
2023-12-28T06:29:46.391Z,5.53
2023-12-28T06:34:50.483Z,5.27
2023-12-28T06:39:53.930Z,5.00
2023-12-28T06:44:58.505Z,5.83
2023-12-28T06:50:01.800Z,5.83
2023-12-28T06:55:05.520Z,6.30
2023-12-28T07:00:11.778Z,6.03
2023-12-28T07:05:15.355Z,5.77
2023-12-28T07:10:18.707Z,5.40
2023-12-28T07:15:23.402Z,5.07
2023-12-28T07:20:27.712Z,5.70
2023-12-28T07:25:31.012Z,5.57
2023-12-28T07:30:35.692Z,4.83
2023-12-28T07:35:39.194Z,5.37
2023-12-28T07:40:42.556Z,5.17
2023-12-28T07:45:47.398Z,5.23
2023-12-28T07:50:52.963Z,5.90
2023-12-28T07:55:57.282Z,5.50
2023-12-28T08:01:02.161Z,6.13
2023-12-28T08:06:06.438Z,6.22
2023-12-28T08:11:09.781Z,5.70
2023-12-28T08:16:14.449Z,6.07
2023-12-28T08:21:17.692Z,4.97
2023-12-28T08:26:20.990Z,6.10
2023-12-28T08:31:25.665Z,5.17
2023-12-28T08:36:29.235Z,6.03
2023-12-28T08:41:32.535Z,5.17
2023-12-28T08:46:37.195Z,4.70
2023-12-28T08:51:43.667Z,4.73
2023-12-28T08:56:52.528Z,4.70
2023-12-28T09:01:58.321Z,4.60
2023-12-28T09:07:02.208Z,4.83
2023-12-28T09:12:06.103Z,5.00
2023-12-28T09:17:10.695Z,4.03
2023-12-28T09:22:14.004Z,4.70
2023-12-28T09:27:17.409Z,4.37
2023-12-28T09:32:23.387Z,4.47
2023-12-28T09:37:26.734Z,5.37
2023-12-28T09:42:37.344Z,4.43
2023-12-28T09:47:42.231Z,5.07
2023-12-28T09:52:45.500Z,5.27
2023-12-28T09:57:49.546Z,5.47
2023-12-28T10:02:54.813Z,5.17
2023-12-28T10:07:59.289Z,4.17
2023-12-28T10:13:03.704Z,4.70
2023-12-28T10:18:08.911Z,4.17
2023-12-28T10:23:13.552Z,3.73
2023-12-28T10:28:19.913Z,4.27
2023-12-28T10:33:25.139Z,5.10
2023-12-28T10:38:34.511Z,4.67
2023-12-28T10:43:47.665Z,4.57
2023-12-28T10:48:57.431Z,2.70
2023-12-28T10:54:09.871Z,5.03
2023-12-28T10:59:31.287Z,3.78
2023-12-28T11:04:43.486Z,4.40
2023-12-28T11:09:47.490Z,4.97
2023-12-28T11:14:54.030Z,4.97
2023-12-28T11:19:59.331Z,4.97
2023-12-28T11:25:02.727Z,4.43
2023-12-28T11:30:07.397Z,4.68
2023-12-28T11:35:14.793Z,4.68
2023-12-28T11:40:21.037Z,4.75
2023-12-28T11:45:27.686Z,4.10
2023-12-28T11:50:33.223Z,5.43
2023-12-28T11:55:36.509Z,4.90
2023-12-28T12:00:39.944Z,4.70
2023-12-28T12:05:45.919Z,5.05
2023-12-28T12:10:49.170Z,4.65
2023-12-28T12:15:57.056Z,4.22
2023-12-28T12:21:03.945Z,5.00
2023-12-28T12:26:10.346Z,4.45
2023-12-28T12:31:14.610Z,3.93
2023-12-28T12:36:20.175Z,4.73
2023-12-28T12:41:23.621Z,4.07
2023-12-28T12:46:27.209Z,3.97
2023-12-28T12:51:32.465Z,4.80
2023-12-28T12:56:36.110Z,4.10
2023-12-28T13:01:39.434Z,4.23
2023-12-28T13:06:44.293Z,4.53
2023-12-28T13:11:51.507Z,4.30
2023-12-28T13:16:58.364Z,3.67
2023-12-28T13:22:04.147Z,4.00
2023-12-28T13:27:07.727Z,3.83
2023-12-28T13:32:11.401Z,3.13
2023-12-28T13:37:16.226Z,3.27
2023-12-28T13:42:19.471Z,3.50
2023-12-28T13:47:22.750Z,3.47
2023-12-28T13:52:27.582Z,3.63
2023-12-28T13:57:32.144Z,3.57
2023-12-28T14:02:35.446Z,3.43
2023-12-28T14:07:40.137Z,4.53
2023-12-28T14:12:43.523Z,4.70
2023-12-28T14:17:46.968Z,4.60
2023-12-28T14:22:52.275Z,3.83
2023-12-28T14:27:56.348Z,4.50
2023-12-28T14:33:00.929Z,4.23
2023-12-28T14:38:06.840Z,3.80
2023-12-28T14:43:10.288Z,4.30
2023-12-28T14:48:13.871Z,4.63
2023-12-28T14:53:19.100Z,5.37
2023-12-28T14:58:23.490Z,4.20
2023-12-28T15:03:26.945Z,4.27
2023-12-28T15:08:31.582Z,4.87
2023-12-28T15:13:35.663Z,4.13
2023-12-28T15:18:41.191Z,4.40
2023-12-28T15:23:46.667Z,4.60
2023-12-28T15:28:50.217Z,5.77
2023-12-28T15:33:54.166Z,5.27
2023-12-28T15:38:58.938Z,5.40
2023-12-28T15:44:02.134Z,4.73
2023-12-28T15:49:06.087Z,4.70
2023-12-28T15:54:10.726Z,5.13
2023-12-28T15:59:14.117Z,4.87
2023-12-28T16:04:17.667Z,4.93
2023-12-28T16:09:23.074Z,5.43
2023-12-28T16:14:27.131Z,4.93
2023-12-28T16:19:31.121Z,5.90
2023-12-28T16:24:35.983Z,6.03
2023-12-28T16:29:39.359Z,5.30
2023-12-28T16:34:42.746Z,5.97
2023-12-28T16:39:47.452Z,5.77
2023-12-28T16:44:50.707Z,5.53
2023-12-28T16:49:54.098Z,5.47
2023-12-28T16:54:58.890Z,5.13
2023-12-28T17:00:10.442Z,4.37
2023-12-28T17:05:16.002Z,4.97
2023-12-28T17:10:22.359Z,5.97
2023-12-28T17:15:29.060Z,4.73
2023-12-28T17:20:33.090Z,5.20
2023-12-28T17:25:44.950Z,4.93
2023-12-28T17:30:49.352Z,4.83
2023-12-28T17:35:53.132Z,4.07
2023-12-28T17:40:58.580Z,4.70
2023-12-28T17:46:11.003Z,4.00
2023-12-28T17:51:15.618Z,4.80
2023-12-28T17:56:20.398Z,5.80
2023-12-28T18:01:24.944Z,5.57
2023-12-28T18:06:28.399Z,4.97
2023-12-28T18:11:33.928Z,5.57
2023-12-28T18:16:37.482Z,4.53
2023-12-28T18:21:44.282Z,5.67
2023-12-28T18:26:49.094Z,5.50
2023-12-28T18:31:53.375Z,6.03
2023-12-28T18:36:58.248Z,6.47
2023-12-28T18:42:03.758Z,5.90
2023-12-28T18:47:09.080Z,6.10
2023-12-28T18:52:13.590Z,5.73
2023-12-28T18:57:19.921Z,5.17
2023-12-28T19:02:24.772Z,5.70
2023-12-28T19:07:29.975Z,5.50
2023-12-28T19:12:35.992Z,5.10
2023-12-28T19:17:42.717Z,4.33
2023-12-28T19:22:47.822Z,5.43
2023-12-28T19:27:54.086Z,5.27
2023-12-28T19:32:58.898Z,5.37
2023-12-28T19:38:04.387Z,4.20
2023-12-28T19:43:11.248Z,5.47
2023-12-28T19:48:16.259Z,4.97
2023-12-28T19:53:20.814Z,5.20
2023-12-28T19:58:27.030Z,5.07
2023-12-28T20:03:32.165Z,5.37
2023-12-28T20:08:37.491Z,6.00
2023-12-28T20:13:45.824Z,6.63
2023-12-28T20:18:50.631Z,6.90
2023-12-28T20:23:54.952Z,6.60
2023-12-28T20:29:00.213Z,6.73
2023-12-28T20:34:04.817Z,5.53
2023-12-28T20:39:09.928Z,4.83
2023-12-28T20:44:17.668Z,6.20
2023-12-28T20:49:34.640Z,5.43
2023-12-28T20:54:48.361Z,5.60
2023-12-28T20:59:55.181Z,5.57
2023-12-28T21:04:58.783Z,5.87
2023-12-28T21:10:02.553Z,6.43
2023-12-28T21:15:09.471Z,5.77
2023-12-28T21:20:13.389Z,6.13
2023-12-28T21:25:17.006Z,6.47
2023-12-28T21:30:21.770Z,6.80
2023-12-28T21:35:25.132Z,5.87
2023-12-28T21:40:29.464Z,6.10
2023-12-28T21:45:34.401Z,7.20
2023-12-28T21:50:38.292Z,6.53
2023-12-28T21:55:41.607Z,6.67
2023-12-28T22:00:46.992Z,6.07
2023-12-28T22:05:50.323Z,5.60
2023-12-28T22:10:53.623Z,5.20
2023-12-28T22:15:59.654Z,5.07
2023-12-28T22:21:03.087Z,5.27
2023-12-28T22:26:06.394Z,4.93
2023-12-28T22:31:11.734Z,4.77
2023-12-28T22:36:15.171Z,5.63
2023-12-28T22:41:18.605Z,5.17
2023-12-28T22:46:23.600Z,4.87
2023-12-28T22:51:27.217Z,5.57
2023-12-28T22:56:30.578Z,5.67
2023-12-28T23:01:35.608Z,5.83
2023-12-28T23:06:38.996Z,5.13
2023-12-28T23:11:43.050Z,5.20
2023-12-28T23:16:48.235Z,5.23
2023-12-28T23:21:51.580Z,5.33
2023-12-28T23:26:55.848Z,5.30
2023-12-28T23:32:00.740Z,6.73
2023-12-28T23:37:04.190Z,5.17
2023-12-28T23:42:08.415Z,5.60
2023-12-28T23:47:13.091Z,5.30
2023-12-28T23:52:16.475Z,5.93
2023-12-28T23:57:19.732Z,5.93
